Terminal Aerodrome Forecast
Issued by NWS Charleston, SC

Home | Current Version | Previous Version | Text Only | Print | Product List | Glossary On
Versions: 1 2 3 4 5 6 7 8 9 10 11 12 13 14 15 16 17 18 19 20 21 22 23 24 25 26 27 28 29 30 31 32 33 34 35 36 37 38
965
FTUS42 KCHS 232144 AAC
TAFSAV
TAF AMD
KSAV 232144Z 2322/2418 29015G30KT 1SM +TSRA BKN021CB
     FM232300 20010KT P6SM -SHRA SCT020 BKN040
     FM240600 22009KT P6SM SCT015 BKN025
     FM241400 21010KT P6SM VCSH SCT020 BKN035=

USA.gov is the U.S. government's official web portal to all federal, state and local government web resources and services.